Accueil
METAR-TAF:

METAR-TAF

Aéroports :

Aéroport Riviera Airport

Albenga, Italie

latitude: 44-03N, longitude: 008-07E, altitude: 45 m

Observation

Le bulletin a été fait il y a 1 heure et 6 minutes, à 16:50 UTC
Vent 3 kt de nord-est
Température 24°C
Humidité 57%
Pression 1017 hPa
Visibilité 10 km ou plus
pas de nuages en-dessous de 1500 mètres et pas de cumulonimbus.

METAR: LIMG 281650Z 05003KT CAVOK 24/15 Q1017

Heure: 19:56 (17:56 UTC)

Prévision

Le bulletin a été fait il y a 6 heures et 56 minutes, à 11:00 UTC
Prévision valable du 28 à 12 UTC au 29 à 12 UTC
Vent 10 kt de est
Visibilité 10 km ou plus
Quelques nuages à une hauteur de 4000 ft
Evoluant progressivement
du 28 à 14 UTC au 28 à 16 UTC
Vent 5 kt de direction variable
Evoluant progressivement
du 29 à 09 UTC au 29 à 11 UTC
Vent 10 kt de est

TAF: LIMG 281100Z 2812/2912 10010KT 9999 FEW040 BECMG 2814/2816 VRB05KT BECMG 2909/2911 09010KT

Observations et prévisions météorologiques de plus de 4000 aéroports (messages METAR et TAF).

Les stations disponibles sont représentées par des disques jaunes et rouges sur la carte.

Passer la souris dessus pour voir le nom de la station.

Cliquer dessus pour voir les observations et prévisions météorologiques.

Pour changer de carte: cliquez sur les boutons verts avec une croix noire pour zoomer, sur le bouton vert avec un tiret pour effectuer un zoom arrière, ou sur les flèches vertes pour les cartes adjacentes.


METAR-TAF: